createdAt,value
2022-08-21T00:00:42.354Z,99932.81
2022-08-21T00:05:50.235Z,99938.48
2022-08-21T00:10:52.295Z,99933.45
2022-08-21T00:15:54.953Z,99930.85
2022-08-21T00:20:56.991Z,99920.25
2022-08-21T00:25:59.898Z,99916.55
2022-08-21T00:31:04.321Z,99915.73
2022-08-21T00:36:06.766Z,99909.64
2022-08-21T00:41:37.832Z,99900.94
2022-08-21T00:46:31.138Z,99895.95
2022-08-21T00:51:58.775Z,99910.80
2022-08-21T00:57:06.351Z,99907.17
2022-08-21T01:02:09.946Z,99908.39
2022-08-21T01:07:11.830Z,99906.11
2022-08-21T01:12:14.204Z,99907.91
2022-08-21T01:17:18.341Z,99903.55
2022-08-21T01:22:20.472Z,99905.52
2022-08-21T01:27:22.531Z,99895.08
2022-08-21T01:32:25.079Z,99882.15
2022-08-21T01:37:27.025Z,99862.44
2022-08-21T01:42:28.945Z,99836.19
2022-08-21T01:47:30.970Z,99826.52
2022-08-21T01:52:33.324Z,99822.02
2022-08-21T01:57:35.401Z,99826.24
2022-08-21T02:02:37.826Z,99830.77
2022-08-21T02:07:42.797Z,99839.96
2022-08-21T02:12:44.921Z,99832.44
2022-08-21T02:17:52.833Z,99840.45
2022-08-21T02:22:54.915Z,99836.19
2022-08-21T02:27:58.768Z,99823.69
2022-08-21T02:33:01.459Z,99817.47
2022-08-21T02:38:07.161Z,99810.96
2022-08-21T02:43:16.563Z,99814.18
2022-08-21T02:48:21.558Z,99822.53
2022-08-21T02:53:23.574Z,99821.14
2022-08-21T02:58:31.924Z,99822.60
2022-08-21T03:03:35.819Z,99820.84
2022-08-21T03:08:38.945Z,99822.90
2022-08-21T03:13:41.027Z,99827.14
2022-08-21T03:18:43.112Z,99828.70
2022-08-21T03:23:44.963Z,99824.73
2022-08-21T03:28:49.447Z,99822.34
2022-08-21T03:33:52.372Z,99824.80
2022-08-21T03:38:54.347Z,99835.17
2022-08-21T03:43:56.262Z,99838.20
2022-08-21T03:48:58.614Z,99840.77
2022-08-21T03:54:00.626Z,99843.95
2022-08-21T03:59:04.167Z,99845.02
2022-08-21T04:04:07.286Z,99853.02
2022-08-21T04:09:09.388Z,99855.16
2022-08-21T04:14:11.284Z,99854.41
2022-08-21T04:19:13.923Z,99857.65
2022-08-21T04:24:16.026Z,99864.38
2022-08-21T04:29:17.991Z,99860.34
2022-08-21T04:34:19.968Z,99857.36
2022-08-21T04:39:21.979Z,99860.30
2022-08-21T04:44:31.499Z,99861.07
2022-08-21T04:49:33.697Z,99861.59
2022-08-21T04:54:36.101Z,99861.71
2022-08-21T04:59:42.278Z,99863.04
2022-08-21T05:04:52.180Z,99860.83
2022-08-21T05:09:55.328Z,99875.91
2022-08-21T05:14:57.302Z,99875.73
2022-08-21T05:19:59.287Z,99881.95
2022-08-21T05:25:01.575Z,99877.56
2022-08-21T05:30:05.722Z,99882.08
2022-08-21T05:35:08.402Z,99887.06
2022-08-21T05:40:21.265Z,99905.39
2022-08-21T05:45:43.537Z,99910.30
2022-08-21T05:50:47.954Z,99913.83
2022-08-21T05:55:51.083Z,99904.52
2022-08-21T06:00:53.388Z,99904.60
2022-08-21T06:05:56.317Z,99909.94
2022-08-21T06:11:00.245Z,99909.02
2022-08-21T06:16:16.162Z,99924.06
2022-08-21T06:21:18.776Z,99925.14
2022-08-21T06:26:22.021Z,99932.30
2022-08-21T06:31:26.235Z,99948.45
2022-08-21T06:36:28.562Z,99963.63
2022-08-21T06:41:30.644Z,99966.67
2022-08-21T06:46:41.102Z,99969.03
2022-08-21T06:51:42.967Z,99975.64
2022-08-21T06:56:47.612Z,99987.63
2022-08-21T07:01:49.977Z,99997.91
2022-08-21T07:06:54.040Z,100000.25
2022-08-21T07:11:57.561Z,100006.96
2022-08-21T07:16:59.447Z,100016.48
2022-08-21T07:22:02.716Z,100013.52
2022-08-21T07:27:10.218Z,100008.77
2022-08-21T07:32:21.484Z,100018.94
2022-08-21T07:37:23.673Z,100018.05
2022-08-21T07:42:27.519Z,100014.84
2022-08-21T07:47:42.104Z,100016.33
2022-08-21T07:52:45.747Z,100016.73
2022-08-21T07:57:48.533Z,100035.25
2022-08-21T08:02:51.777Z,100046.51
2022-08-21T08:07:59.027Z,100050.76
2022-08-21T08:13:02.087Z,100038.33
2022-08-21T08:18:05.098Z,100035.02
2022-08-21T08:23:11.391Z,100030.32
2022-08-21T08:28:20.365Z,100041.77
2022-08-21T08:33:23.127Z,100037.84
2022-08-21T08:38:26.310Z,100026.96
2022-08-21T08:43:29.663Z,100018.23
2022-08-21T08:48:52.853Z,100010.77
2022-08-21T08:54:00.655Z,100011.85
2022-08-21T08:59:30.520Z,100019.70
2022-08-21T09:04:32.977Z,100028.28
2022-08-21T09:09:50.842Z,100034.33
2022-08-21T09:15:02.203Z,100041.77
2022-08-21T09:20:26.619Z,100045.30
2022-08-21T09:25:35.527Z,100042.42
2022-08-21T09:30:46.306Z,100051.70
2022-08-21T09:35:55.545Z,100050.23
2022-08-21T09:41:06.691Z,100047.48
2022-08-21T09:46:21.958Z,100051.52
2022-08-21T09:51:35.574Z,100055.98
2022-08-21T09:57:17.662Z,100058.17
2022-08-21T10:02:27.709Z,100061.51
2022-08-21T10:07:37.272Z,100058.90
2022-08-21T10:13:16.274Z,100059.14
2022-08-21T10:18:53.714Z,100055.60
2022-08-21T10:24:31.147Z,100054.95
2022-08-21T10:30:04.714Z,100059.14
2022-08-21T10:35:33.194Z,100061.66
2022-08-21T10:41:12.313Z,100067.34
2022-08-21T10:46:47.218Z,100068.95
2022-08-21T10:52:34.788Z,100064.77
2022-08-21T10:57:48.582Z,100057.87
2022-08-21T11:03:16.015Z,100058.64
2022-08-21T11:08:39.317Z,100055.90
2022-08-21T11:14:35.317Z,100056.30
2022-08-21T11:19:46.535Z,100061.45
2022-08-21T11:24:59.940Z,100063.91
2022-08-21T11:30:02.256Z,100068.66
2022-08-21T11:35:17.240Z,100071.09
2022-08-21T11:40:43.866Z,100067.09
2022-08-21T11:45:56.660Z,100068.71
2022-08-21T11:51:01.534Z,100067.46
2022-08-21T11:56:12.998Z,100069.84
2022-08-21T12:01:32.365Z,100065.71
2022-08-21T12:06:39.612Z,100063.55
2022-08-21T12:11:49.776Z,100073.27
2022-08-21T12:16:51.788Z,100074.61
2022-08-21T12:22:10.588Z,100076.48
2022-08-21T12:27:41.928Z,100079.41
2022-08-21T12:32:47.677Z,100077.30
2022-08-21T12:38:01.011Z,100075.61
2022-08-21T12:43:04.204Z,100074.77
2022-08-21T12:48:15.983Z,100070.73
2022-08-21T12:53:33.091Z,100073.77
2022-08-21T12:58:35.927Z,100072.75
2022-08-21T13:03:38.637Z,100068.30
2022-08-21T13:08:45.499Z,100063.03
2022-08-21T13:13:51.106Z,100061.68
2022-08-21T13:19:04.158Z,100064.35
2022-08-21T13:24:44.204Z,100060.40
2022-08-21T13:29:52.221Z,100065.02
2022-08-21T13:34:56.472Z,100064.80
2022-08-21T13:39:58.791Z,100068.77
2022-08-21T13:45:01.081Z,100071.23
2022-08-21T13:50:03.989Z,100075.14
2022-08-21T13:55:16.576Z,100071.16
2022-08-21T14:00:25.259Z,100070.55
2022-08-21T14:05:32.105Z,100073.38
2022-08-21T14:10:43.833Z,100074.63
2022-08-21T14:15:55.750Z,100080.81
2022-08-21T14:21:09.723Z,100081.23
2022-08-21T14:26:18.238Z,100083.24
2022-08-21T14:31:22.603Z,100087.36
2022-08-21T14:36:25.522Z,100089.45
2022-08-21T14:41:30.206Z,100085.46
2022-08-21T14:46:45.886Z,100084.75
2022-08-21T14:52:01.209Z,100077.36
2022-08-21T14:57:09.922Z,100079.67
2022-08-21T15:02:14.758Z,100077.67
2022-08-21T15:07:16.884Z,100074.85
2022-08-21T15:12:20.542Z,100075.74
2022-08-21T15:17:22.877Z,100075.49
2022-08-21T15:22:28.041Z,100073.92
2022-08-21T15:27:31.872Z,100071.09
2022-08-21T15:32:33.846Z,100070.95
2022-08-21T15:37:36.867Z,100070.63
2022-08-21T15:42:46.813Z,100074.55
2022-08-21T15:47:49.927Z,100080.30
2022-08-21T15:52:51.876Z,100080.41
2022-08-21T15:57:57.114Z,100083.64
2022-08-21T16:03:01.826Z,100082.92
2022-08-21T16:08:05.315Z,100079.25
2022-08-21T16:13:23.077Z,100086.05
2022-08-21T16:18:26.258Z,100088.84
2022-08-21T16:23:28.291Z,100081.48
2022-08-21T16:28:32.522Z,100072.47
2022-08-21T16:33:41.306Z,100077.28
2022-08-21T16:38:43.662Z,100081.59
2022-08-21T16:43:49.563Z,100083.10
2022-08-21T16:48:51.528Z,100091.98
2022-08-21T16:53:53.531Z,100090.42
2022-08-21T16:58:57.063Z,100094.62
2022-08-21T17:03:59.936Z,100105.15
2022-08-21T17:09:02.190Z,100109.00
2022-08-21T17:14:08.350Z,100117.77
2022-08-21T17:19:13.314Z,100116.01
2022-08-21T17:24:15.722Z,100117.59
2022-08-21T17:29:20.642Z,100115.06
2022-08-21T17:34:23.194Z,100115.80
2022-08-21T17:39:31.469Z,100119.59
2022-08-21T17:44:52.811Z,100118.83
2022-08-21T17:49:56.601Z,100117.21
2022-08-21T17:55:00.226Z,100115.23
2022-08-21T18:00:06.288Z,100117.67
2022-08-21T18:05:29.100Z,100121.19
2022-08-21T18:10:31.958Z,100121.34
2022-08-21T18:15:35.063Z,100121.19
2022-08-21T18:20:37.215Z,100124.91
2022-08-21T18:25:42.285Z,100130.98
2022-08-21T18:30:47.679Z,100130.52
2022-08-21T18:35:50.052Z,100132.46
2022-08-21T18:40:56.064Z,100131.55
2022-08-21T18:46:05.111Z,100134.42
2022-08-21T18:51:12.270Z,100130.45
2022-08-21T19:01:51.909Z,100135.19
2022-08-21T19:06:54.244Z,100138.24
2022-08-21T19:11:57.877Z,100141.86
2022-08-21T19:17:00.778Z,100142.56
2022-08-21T19:22:11.257Z,100141.90
2022-08-21T19:27:15.986Z,100143.16
2022-08-21T19:32:24.930Z,100147.34
2022-08-21T19:37:32.183Z,100144.42
2022-08-21T19:42:42.050Z,100139.23
2022-08-21T19:47:48.497Z,100136.73
2022-08-21T19:52:51.647Z,100132.60
2022-08-21T19:57:55.274Z,100133.59
2022-08-21T20:02:57.499Z,100139.48
2022-08-21T20:08:00.316Z,100138.95
2022-08-21T20:13:03.594Z,100136.91
2022-08-21T20:18:05.904Z,100141.26
2022-08-21T20:23:10.661Z,100147.41
2022-08-21T20:28:16.937Z,100150.39
2022-08-21T20:33:19.989Z,100149.11
2022-08-21T20:38:23.061Z,100147.96
2022-08-21T20:43:28.018Z,100148.25
2022-08-21T20:48:49.098Z,100141.82
2022-08-21T20:54:29.557Z,100140.66
2022-08-21T20:59:45.103Z,100136.48
2022-08-21T21:05:11.069Z,100131.60
2022-08-21T21:10:26.475Z,100124.23
2022-08-21T21:15:33.133Z,100118.48
2022-08-21T21:20:57.323Z,100123.61
2022-08-21T21:26:21.117Z,100129.02
2022-08-21T21:31:26.984Z,100136.16
2022-08-21T21:36:56.207Z,100140.96
2022-08-21T21:42:54.437Z,100149.18
2022-08-21T21:48:06.791Z,100150.08
2022-08-21T21:53:22.522Z,100149.29
2022-08-21T21:58:38.281Z,100142.27
2022-08-21T22:03:56.505Z,100136.66
2022-08-21T22:09:34.209Z,100135.90
2022-08-21T22:14:41.614Z,100138.08
2022-08-21T22:19:45.220Z,100140.30
2022-08-21T22:24:54.025Z,100139.03
2022-08-21T22:30:00.855Z,100142.67
2022-08-21T22:35:14.928Z,100140.56
2022-08-21T22:40:26.306Z,100130.21
2022-08-21T22:45:51.442Z,100118.85
2022-08-21T22:51:07.447Z,100108.42
2022-08-21T22:56:13.162Z,100092.42
2022-08-21T23:01:43.961Z,100082.23
2022-08-21T23:06:57.887Z,100067.73
2022-08-21T23:17:31.761Z,100078.67
2022-08-21T23:23:01.582Z,100100.08
2022-08-21T23:28:28.631Z,100111.05
2022-08-21T23:33:52.348Z,100112.83
2022-08-21T23:39:10.778Z,100113.12
2022-08-21T23:44:52.033Z,100110.29
2022-08-21T23:50:25.372Z,100110.94
2022-08-21T23:56:01.548Z,100107.27
